Harrisburg, PA (17140)

6:36 PM EDT on August 30, 2016 (GMT -0400)
WB3JFA / RUTHERFORD HEIGHTS | | Change Station

Elev 479 ft 40.27 °N, 76.77 °W | Updated 51 seconds ago

Scattered Clouds
Scattered Clouds
84.3 °F
Feels Like 84 °F
N
5.0
Wind Variable Wind from SE
Gusts 5.0 mph

Today
High -- | Low -- °F
--% Chance of Precip.
Yesterday
High -- | Low -- °F
Precip. -- in
Pressure 30.04 in
Visibility 10.0 miles
Clouds Few 5000 ft
Scattered Clouds 25000 ft
Heat Index 84 °F
Dew Point 60 °F
Humidity 44%
Rainfall 0.00 in
Snow Depth Not available.
6:33 AM 7:41 PM
Waning Crescent, 2% visible
METAR KMDT 302156Z 00000KT 10SM FEW050 SCT250 31/18 A3004 RMK AO2 SLP170 T03060178
Pressure 30.04 in
Visibility 10.0 miles
Clouds Few 5000 ft
Scattered Clouds 25000 ft
Heat Index 84 °F
Dew Point 60 °F
Humidity 44%
Rainfall 0.00 in
Snow Depth Not available.
6:33 AM 7:41 PM
Waning Crescent, 2% visible
METAR KMDT 302156Z 00000KT 10SM FEW050 SCT250 31/18 A3004 RMK AO2 SLP170 T03060178

10-Day Weather Forecast

Almanac

Astronomy

Aug. 30, 2016 Rise Set
Actual Time
Civil Twilight
Nautical Twilight
Astronomical Twilight
Moon
Length of Visible Light
Length of Day
Tomorrow will be .
, % of the Moon is Illuminated

Today's Extremes

State Highs State Lows

Community

WunderPhotos

Upload Photos

1,935,914 photos uploaded!

WunderBlog® & News

Nearby

Air Quality

  Air Quality AQ Index Pollutant
Not available.

Snow Depth

Station Depth Elevation

Earthquake Activity

City Distance Mag. Time & Date
Minimum magnitude displayed is 2.5.

Coastal Water Temperatures

Place Temperature

Stations

Nearby Weather Stations

Station Location Temp. Windchill Dew Point Humidity Wind Precip. Elev Updated Type
                   

Watches & Warnings

There are currently no watches in effect.